Topley, Canada
Current Conditions -  °F | °C
As of 5:00 PM on Friday 19 Dec 2014 (Local Time) from CYYD Reporting Station
Overcast Overcast  
Wind Chill: 23°   Ceiling: 6000
Heat Index: 30°   Visibility: 20mi
Dew Point: 28°   Wind: 7mph
Humidity: 93%   Direction: 150°SSE
Pressure: 29.49"   Gusts: NA
Location:  54.52°N, 126.3°W
Report Text: CYYD 200100Z 15006KT 20SM BKN060 OVC100 M01/M02 A2949 RMK SC6AC2 SLP007
Loading
Personal Weather Stations






























Interactive Weather Map New forecast layout! Learn more

10-Day Weather Forecast

Advertisements
Track Severe Weather on mobile